createdAt,value
2022-12-18T00:01:34.102Z,2.63
2022-12-18T00:04:02.712Z,2.97
2022-12-18T00:06:31.267Z,2.80
2022-12-18T00:09:01.181Z,2.93
2022-12-18T00:11:29.829Z,3.00
2022-12-18T00:13:58.345Z,2.57
2022-12-18T00:16:27.061Z,2.83
2022-12-18T00:18:55.657Z,2.80
2022-12-18T00:21:23.984Z,2.80
2022-12-18T00:23:52.409Z,2.33
2022-12-18T00:26:22.685Z,1.90
2022-12-18T00:28:51.086Z,3.47
2022-12-18T00:31:20.010Z,2.53
2022-12-18T00:33:48.609Z,2.20
2022-12-18T00:36:23.057Z,2.50
2022-12-18T00:38:51.329Z,2.20
2022-12-18T00:41:39.733Z,2.63
2022-12-18T00:44:08.681Z,3.17
2022-12-18T00:46:36.899Z,2.80
2022-12-18T00:49:05.215Z,2.90
2022-12-18T00:51:33.475Z,2.60
2022-12-18T00:54:01.705Z,2.73
2022-12-18T00:56:29.966Z,2.93
2022-12-18T00:58:58.250Z,3.13
2022-12-18T01:01:28.120Z,2.60
2022-12-18T01:03:56.479Z,2.70
2022-12-18T01:06:24.782Z,2.30
2022-12-18T01:08:53.036Z,2.17
2022-12-18T01:11:21.682Z,2.37
2022-12-18T01:13:49.922Z,2.30
2022-12-18T01:16:18.728Z,3.03
2022-12-18T01:18:48.455Z,2.37
2022-12-18T01:21:17.932Z,2.03
2022-12-18T01:23:46.206Z,2.70
2022-12-18T01:26:14.978Z,2.40
2022-12-18T01:28:43.367Z,2.50
2022-12-18T01:31:12.540Z,3.00
2022-12-18T01:33:41.169Z,2.57
2022-12-18T01:36:11.488Z,3.00
2022-12-18T01:38:39.792Z,2.37
2022-12-18T01:41:08.117Z,3.30
2022-12-18T01:43:49.444Z,3.07
2022-12-18T01:46:18.564Z,2.40
2022-12-18T01:48:47.074Z,2.83
2022-12-18T01:51:16.677Z,2.83
2022-12-18T01:53:45.142Z,3.37
2022-12-18T01:56:15.258Z,2.63
2022-12-18T01:58:44.518Z,2.80
2022-12-18T02:01:12.839Z,3.50
2022-12-18T02:03:43.590Z,2.20
2022-12-18T02:06:13.213Z,3.00
2022-12-18T02:08:43.729Z,2.37
2022-12-18T02:11:13.443Z,2.50
2022-12-18T02:13:44.007Z,3.13
2022-12-18T02:16:13.353Z,2.27
2022-12-18T02:18:43.326Z,2.77
2022-12-18T02:21:12.716Z,2.87
2022-12-18T02:23:46.061Z,2.60
2022-12-18T02:26:17.605Z,2.60
2022-12-18T02:28:46.849Z,2.63
2022-12-18T02:31:16.553Z,2.43
2022-12-18T02:33:44.953Z,3.27
2022-12-18T02:36:13.229Z,2.70
2022-12-18T02:38:41.468Z,3.17
2022-12-18T02:41:09.681Z,2.57
2022-12-18T02:43:39.638Z,2.80
2022-12-18T02:46:22.934Z,2.70
2022-12-18T02:48:51.975Z,2.57
2022-12-18T02:51:21.254Z,2.87
2022-12-18T02:53:51.811Z,2.93
2022-12-18T02:56:20.861Z,3.03
2022-12-18T02:58:50.921Z,2.63
2022-12-18T03:01:20.069Z,2.77
2022-12-18T03:03:49.306Z,2.77
2022-12-18T03:06:19.655Z,2.47
2022-12-18T03:08:48.286Z,2.30
2022-12-18T03:11:16.544Z,2.03
2022-12-18T03:13:46.323Z,2.10
2022-12-18T03:16:17.169Z,3.20
2022-12-18T03:18:46.006Z,2.80
2022-12-18T03:21:14.314Z,2.33
2022-12-18T03:23:47.835Z,2.33
2022-12-18T03:26:17.518Z,3.30
2022-12-18T03:28:46.866Z,2.70
2022-12-18T03:31:16.848Z,2.00
2022-12-18T03:33:45.439Z,3.20
2022-12-18T03:36:13.693Z,2.80
2022-12-18T03:38:41.940Z,3.03
2022-12-18T03:41:11.994Z,2.67
2022-12-18T03:43:42.755Z,2.40
2022-12-18T03:46:13.811Z,2.23
2022-12-18T03:48:44.685Z,2.10
2022-12-18T03:51:13.104Z,2.97
2022-12-18T03:53:43.305Z,2.63
2022-12-18T03:56:11.931Z,2.30
2022-12-18T03:58:42.224Z,2.43
2022-12-18T04:01:10.915Z,2.67
2022-12-18T04:03:39.939Z,2.20
2022-12-18T04:06:09.800Z,2.17
2022-12-18T04:08:38.056Z,2.27
2022-12-18T04:11:06.451Z,2.13
2022-12-18T04:13:35.065Z,2.40
2022-12-18T04:16:03.369Z,2.60
2022-12-18T04:18:31.669Z,2.03
2022-12-18T04:20:59.921Z,2.33
2022-12-18T04:23:29.818Z,2.80
2022-12-18T04:25:58.080Z,2.33
2022-12-18T04:28:26.383Z,2.13
2022-12-18T04:30:54.692Z,2.43
2022-12-18T04:33:22.950Z,2.27
2022-12-18T04:35:51.210Z,2.17
2022-12-18T04:38:19.510Z,2.40
2022-12-18T04:40:49.182Z,2.00
2022-12-18T04:43:17.518Z,2.10
2022-12-18T04:45:45.780Z,2.17
2022-12-18T04:48:14.029Z,2.57
2022-12-18T04:50:42.280Z,2.20
2022-12-18T04:53:10.533Z,2.37
2022-12-18T04:55:38.877Z,2.03
2022-12-18T04:58:08.548Z,2.17
2022-12-18T05:00:37.944Z,1.70
2022-12-18T05:03:06.349Z,2.60
2022-12-18T05:05:34.632Z,2.23
2022-12-18T05:08:02.908Z,1.77
2022-12-18T05:10:37.802Z,2.17
2022-12-18T05:13:06.688Z,2.50
2022-12-18T05:15:36.360Z,2.63
2022-12-18T05:18:05.142Z,2.63
2022-12-18T05:20:33.424Z,1.90
2022-12-18T05:23:01.717Z,2.13
2022-12-18T05:25:29.977Z,1.73
2022-12-18T05:27:58.340Z,2.23
2022-12-18T05:30:27.062Z,1.97
2022-12-18T05:32:57.049Z,2.33
2022-12-18T05:35:25.306Z,2.30
2022-12-18T05:37:53.588Z,1.97
2022-12-18T05:40:21.833Z,2.27
2022-12-18T05:42:50.096Z,1.80
2022-12-18T05:45:18.622Z,1.80
2022-12-18T05:47:46.884Z,2.00
2022-12-18T05:50:16.524Z,1.87
2022-12-18T05:52:44.781Z,1.90
2022-12-18T05:55:13.081Z,1.67
2022-12-18T05:57:41.345Z,2.83
2022-12-18T06:00:10.376Z,1.73
2022-12-18T06:02:38.744Z,1.33
2022-12-18T06:05:07.509Z,2.30
2022-12-18T06:07:37.175Z,1.93
2022-12-18T06:10:05.704Z,1.83
2022-12-18T06:12:34.791Z,1.93
2022-12-18T06:15:03.116Z,2.40
2022-12-18T06:17:31.387Z,1.67
2022-12-18T06:19:59.666Z,1.67
2022-12-18T06:22:27.981Z,2.13
2022-12-18T06:24:57.610Z,2.20
2022-12-18T06:27:25.919Z,1.43
2022-12-18T06:29:54.554Z,2.20
2022-12-18T06:32:22.791Z,2.00
2022-12-18T06:34:51.129Z,2.17
2022-12-18T06:37:19.421Z,1.80
2022-12-18T06:39:47.686Z,1.60
2022-12-18T06:42:17.286Z,2.30
2022-12-18T06:44:45.527Z,1.67
2022-12-18T06:47:13.802Z,1.60
2022-12-18T06:49:42.087Z,1.47
2022-12-18T06:52:10.400Z,2.10
2022-12-18T06:54:38.668Z,2.20
2022-12-18T06:57:06.939Z,2.30
2022-12-18T06:59:36.627Z,2.00
2022-12-18T07:02:05.658Z,1.77
2022-12-18T07:04:34.102Z,2.13
2022-12-18T07:07:02.363Z,1.37
2022-12-18T07:09:30.594Z,1.63
2022-12-18T07:11:58.853Z,1.67
2022-12-18T07:14:27.722Z,1.47
2022-12-18T07:16:57.433Z,1.30
2022-12-18T07:19:25.781Z,1.70
2022-12-18T07:21:54.058Z,1.70
2022-12-18T07:24:22.391Z,1.73
2022-12-18T07:26:51.170Z,2.20
2022-12-18T07:29:19.492Z,1.80
2022-12-18T07:31:47.822Z,1.40
2022-12-18T07:34:17.809Z,1.47
2022-12-18T07:36:46.130Z,1.27
2022-12-18T07:39:14.486Z,1.63
2022-12-18T07:41:47.490Z,1.93
2022-12-18T07:44:16.155Z,1.30
2022-12-18T07:46:44.410Z,2.00
2022-12-18T07:49:12.715Z,1.50
2022-12-18T07:51:42.328Z,1.77
2022-12-18T07:54:10.571Z,1.50
2022-12-18T07:56:38.806Z,1.43
2022-12-18T07:59:07.035Z,1.53
2022-12-18T08:01:35.911Z,1.30
2022-12-18T08:04:04.471Z,1.33
2022-12-18T08:06:32.850Z,1.43
2022-12-18T08:09:02.493Z,1.33
2022-12-18T08:11:30.955Z,1.37
2022-12-18T08:13:59.260Z,1.37
2022-12-18T08:16:27.614Z,1.53
2022-12-18T08:18:56.149Z,1.47
2022-12-18T08:21:24.862Z,1.53
2022-12-18T08:23:53.231Z,1.50
2022-12-18T08:26:23.021Z,1.60
2022-12-18T08:28:52.264Z,1.33
2022-12-18T08:31:21.023Z,2.00
2022-12-18T08:33:51.151Z,2.00
2022-12-18T08:36:19.479Z,1.17
2022-12-18T08:38:47.768Z,1.03
2022-12-18T08:41:16.679Z,1.50
2022-12-18T08:44:04.458Z,1.13
2022-12-18T08:46:35.080Z,1.30
2022-12-18T08:49:03.478Z,1.40
2022-12-18T08:51:32.327Z,1.03
2022-12-18T08:54:00.612Z,1.80
2022-12-18T08:56:28.901Z,1.30
2022-12-18T08:58:58.804Z,1.03
2022-12-18T09:01:27.246Z,1.13
2022-12-18T09:03:55.697Z,1.30
2022-12-18T09:06:24.256Z,1.30
2022-12-18T09:08:52.485Z,1.63
2022-12-18T09:11:22.733Z,1.20
2022-12-18T09:13:51.005Z,1.13
2022-12-18T09:16:20.811Z,1.07
2022-12-18T09:18:49.139Z,1.47
2022-12-18T09:21:18.109Z,1.23
2022-12-18T09:23:46.409Z,0.90
2022-12-18T09:26:14.683Z,1.10
2022-12-18T09:28:43.319Z,1.10
2022-12-18T09:31:11.875Z,1.17
2022-12-18T09:33:41.538Z,2.50
2022-12-18T09:36:10.895Z,1.20
2022-12-18T09:38:39.447Z,1.23
2022-12-18T09:41:08.540Z,1.10
2022-12-18T09:43:38.034Z,1.33
2022-12-18T09:46:07.996Z,1.43
2022-12-18T09:48:37.560Z,1.20
2022-12-18T09:51:09.014Z,1.43
2022-12-18T09:53:37.956Z,1.63
2022-12-18T09:56:06.737Z,1.20
2022-12-18T09:58:35.977Z,1.43
2022-12-18T10:01:04.421Z,1.40
2022-12-18T10:03:32.932Z,1.40
2022-12-18T10:06:02.945Z,1.20
2022-12-18T10:08:36.850Z,1.20
2022-12-18T10:11:06.721Z,1.50
2022-12-18T10:13:36.611Z,1.40
2022-12-18T10:16:07.885Z,1.30
2022-12-18T10:18:40.186Z,1.17
2022-12-18T10:21:11.267Z,1.73
2022-12-18T10:23:48.059Z,1.33
2022-12-18T10:26:16.722Z,1.13
2022-12-18T10:28:46.189Z,1.40
2022-12-18T10:31:15.688Z,1.50
2022-12-18T10:33:44.012Z,1.07
2022-12-18T10:36:12.426Z,1.13
2022-12-18T10:38:42.561Z,0.90
2022-12-18T10:41:27.418Z,1.30
2022-12-18T10:44:10.742Z,1.67
2022-12-18T10:46:39.382Z,2.30
2022-12-18T10:49:07.684Z,0.90
2022-12-18T10:51:36.353Z,1.50
2022-12-18T10:54:06.853Z,1.07
2022-12-18T10:56:36.260Z,1.40
2022-12-18T10:59:05.049Z,0.87
2022-12-18T11:01:36.089Z,1.50
2022-12-18T11:04:05.223Z,1.00
2022-12-18T11:06:33.568Z,1.10
2022-12-18T11:09:08.054Z,1.60
2022-12-18T11:11:43.005Z,1.13
2022-12-18T11:14:15.299Z,1.53
2022-12-18T11:17:03.131Z,0.93
2022-12-18T11:19:35.426Z,1.07
2022-12-18T11:22:04.060Z,1.10
2022-12-18T11:24:33.260Z,1.20
2022-12-18T11:27:03.813Z,1.27
2022-12-18T11:29:34.590Z,1.23
2022-12-18T11:32:16.105Z,1.27
2022-12-18T11:34:44.409Z,1.30
2022-12-18T11:37:12.683Z,1.10
2022-12-18T11:39:41.618Z,1.33
2022-12-18T11:42:14.185Z,1.00
2022-12-18T11:44:46.258Z,1.00
2022-12-18T11:47:16.465Z,1.53
2022-12-18T11:49:44.750Z,1.57
2022-12-18T11:52:16.427Z,1.27
2022-12-18T11:54:44.644Z,0.70
2022-12-18T11:57:16.438Z,1.60
2022-12-18T11:59:46.188Z,1.17
2022-12-18T12:02:18.731Z,1.10
2022-12-18T12:04:59.035Z,1.23
2022-12-18T12:07:30.942Z,1.13
2022-12-18T12:10:01.944Z,0.87
2022-12-18T12:12:48.693Z,1.10
2022-12-18T12:15:20.375Z,1.03
2022-12-18T12:17:50.800Z,1.20
2022-12-18T12:20:20.016Z,0.90
2022-12-18T12:22:49.050Z,1.30
2022-12-18T12:25:22.036Z,1.37
2022-12-18T12:27:53.010Z,1.17
2022-12-18T12:30:22.430Z,1.33
2022-12-18T12:33:05.635Z,1.37
2022-12-18T12:35:35.529Z,1.20
2022-12-18T12:38:07.355Z,1.37
2022-12-18T12:40:57.093Z,0.87
2022-12-18T12:43:26.640Z,1.23
2022-12-18T12:45:56.985Z,0.87
2022-12-18T12:48:36.056Z,0.83
2022-12-18T12:51:05.203Z,0.90
2022-12-18T12:53:38.235Z,1.23
2022-12-18T12:56:08.404Z,1.00
2022-12-18T12:58:39.800Z,1.10
2022-12-18T13:01:15.296Z,1.27
2022-12-18T13:03:51.102Z,1.27
2022-12-18T13:06:22.682Z,1.40
2022-12-18T13:08:55.154Z,1.30
2022-12-18T13:11:54.838Z,1.00
2022-12-18T13:14:32.645Z,0.87
2022-12-18T13:17:19.969Z,1.13
2022-12-18T13:19:51.308Z,1.70
2022-12-18T13:22:23.679Z,1.10
2022-12-18T13:24:51.920Z,1.40
2022-12-18T13:27:39.177Z,0.87
2022-12-18T13:30:15.254Z,1.50
2022-12-18T13:32:43.632Z,1.00
2022-12-18T13:35:30.699Z,1.07
2022-12-18T13:37:59.577Z,1.17
2022-12-18T13:40:43.113Z,1.30
2022-12-18T13:43:23.224Z,1.60
2022-12-18T13:46:01.873Z,1.20
2022-12-18T13:48:30.680Z,0.90
2022-12-18T13:51:04.386Z,1.10
2022-12-18T13:53:34.010Z,0.80
2022-12-18T13:56:02.254Z,1.00
2022-12-18T13:58:30.570Z,1.03
2022-12-18T14:01:03.074Z,1.97
2022-12-18T14:03:32.291Z,2.07
2022-12-18T14:06:05.699Z,2.23
2022-12-18T14:08:40.069Z,2.77
2022-12-18T14:11:08.844Z,8.73
2022-12-18T14:13:40.149Z,25.03
2022-12-18T14:16:10.471Z,32.17
2022-12-18T14:18:45.244Z,26.90
2022-12-18T14:21:19.871Z,21.77
2022-12-18T14:23:48.102Z,19.97
2022-12-18T14:26:23.107Z,18.37
2022-12-18T14:28:51.407Z,16.60
2022-12-18T14:31:21.857Z,14.60
2022-12-18T14:33:50.757Z,12.40
2022-12-18T14:36:19.352Z,11.37
2022-12-18T14:38:50.843Z,10.73
2022-12-18T14:41:19.484Z,10.83
2022-12-18T14:43:48.063Z,10.43
2022-12-18T14:46:30.703Z,8.73
2022-12-18T14:48:59.050Z,7.63
2022-12-18T14:51:28.936Z,7.27
2022-12-18T14:53:57.879Z,6.90
2022-12-18T14:56:26.672Z,7.47
2022-12-18T14:58:56.240Z,6.33
2022-12-18T15:01:28.551Z,5.83
2022-12-18T15:03:58.609Z,4.87
2022-12-18T15:06:28.563Z,4.57
2022-12-18T15:08:56.801Z,3.87
2022-12-18T15:11:28.790Z,4.17
2022-12-18T15:13:57.276Z,3.53
2022-12-18T15:16:25.577Z,3.00
2022-12-18T15:18:54.020Z,4.00
2022-12-18T15:21:23.635Z,3.07
2022-12-18T15:23:52.437Z,3.23
2022-12-18T15:26:21.196Z,3.17
2022-12-18T15:28:50.743Z,2.20
2022-12-18T15:31:24.864Z,2.87
2022-12-18T15:34:04.096Z,2.90
2022-12-18T15:36:37.303Z,2.37
2022-12-18T15:39:06.869Z,2.20
2022-12-18T15:41:36.042Z,2.40
2022-12-18T15:44:03.839Z,1.90
2022-12-18T15:46:32.648Z,2.10
2022-12-18T15:49:02.495Z,1.37
2022-12-18T15:51:31.397Z,1.70
2022-12-18T15:54:01.432Z,1.47
2022-12-18T15:56:47.213Z,1.60
2022-12-18T15:59:16.854Z,2.07
2022-12-18T16:01:45.879Z,1.27
2022-12-18T16:04:14.840Z,1.80
2022-12-18T16:07:12.834Z,1.57
2022-12-18T16:09:33.011Z,1.30
2022-12-18T16:12:01.596Z,1.40
2022-12-18T16:14:30.328Z,1.20
2022-12-18T16:16:59.339Z,1.40
2022-12-18T16:19:27.854Z,1.70
2022-12-18T16:21:57.141Z,1.10
2022-12-18T16:24:26.232Z,1.70
2022-12-18T16:26:56.076Z,1.17
2022-12-18T16:29:27.921Z,1.23
2022-12-18T16:31:56.332Z,1.60
2022-12-18T16:34:28.652Z,1.00
2022-12-18T16:37:01.685Z,1.27
2022-12-18T16:39:34.269Z,1.13
2022-12-18T16:42:05.678Z,1.23
2022-12-18T16:44:34.509Z,1.37
2022-12-18T16:47:04.033Z,1.17
2022-12-18T16:49:32.317Z,1.60
2022-12-18T16:52:00.575Z,1.00
2022-12-18T16:54:30.487Z,0.90
2022-12-18T16:56:58.840Z,0.90
2022-12-18T16:59:29.212Z,1.60
2022-12-18T17:01:58.637Z,1.30
2022-12-18T17:04:27.062Z,1.00
2022-12-18T17:06:55.306Z,1.50
2022-12-18T17:09:25.137Z,1.33
2022-12-18T17:11:53.452Z,1.50
2022-12-18T17:14:22.250Z,1.13
2022-12-18T17:17:19.079Z,1.20
2022-12-18T17:19:40.234Z,1.20
2022-12-18T17:22:09.509Z,1.40
2022-12-18T17:24:37.822Z,1.10
2022-12-18T17:27:06.367Z,1.30
2022-12-18T17:29:34.955Z,1.33
2022-12-18T17:32:04.591Z,1.50
2022-12-18T17:34:32.855Z,1.03
2022-12-18T17:37:01.455Z,1.00
2022-12-18T17:39:30.730Z,1.20
2022-12-18T17:41:59.711Z,1.83
2022-12-18T17:44:28.043Z,1.30
2022-12-18T17:46:56.415Z,1.37
2022-12-18T17:49:26.210Z,1.37
2022-12-18T17:51:54.891Z,1.77
2022-12-18T17:54:23.155Z,1.53
2022-12-18T17:56:51.729Z,1.23
2022-12-18T17:59:19.990Z,1.23
2022-12-18T18:01:48.519Z,1.27
2022-12-18T18:04:17.236Z,1.37
2022-12-18T18:06:46.967Z,1.37
2022-12-18T18:09:16.999Z,1.30
2022-12-18T18:12:03.393Z,1.37
2022-12-18T18:14:31.836Z,1.07
2022-12-18T18:17:04.632Z,1.20
2022-12-18T18:19:33.596Z,1.10
2022-12-18T18:22:03.774Z,1.37
2022-12-18T18:24:33.168Z,1.17
2022-12-18T18:27:01.588Z,1.23
2022-12-18T18:29:31.130Z,1.13
2022-12-18T18:31:59.859Z,1.30
2022-12-18T18:34:29.333Z,1.20
2022-12-18T18:36:57.642Z,1.20
2022-12-18T18:39:27.275Z,1.37
2022-12-18T18:41:55.666Z,1.00
2022-12-18T18:44:26.021Z,1.27
2022-12-18T18:46:55.458Z,1.20
2022-12-18T18:49:24.208Z,1.17
2022-12-18T18:51:52.502Z,1.60
2022-12-18T18:54:21.183Z,1.50
2022-12-18T18:59:40.003Z,1.07
2022-12-18T19:02:08.496Z,1.33
2022-12-18T19:04:37.815Z,1.20
2022-12-18T19:07:13.375Z,1.30
2022-12-18T19:09:44.947Z,1.50
2022-12-18T19:12:32.168Z,1.77
2022-12-18T19:15:00.499Z,1.43
2022-12-18T19:17:30.679Z,1.47
2022-12-18T19:19:59.871Z,1.43
2022-12-18T19:22:28.178Z,1.67
2022-12-18T19:24:56.750Z,1.93
2022-12-18T19:27:26.358Z,1.40
2022-12-18T19:29:54.595Z,1.03
2022-12-18T19:32:23.177Z,0.90
2022-12-18T19:34:51.450Z,1.37
2022-12-18T19:37:20.120Z,1.43
2022-12-18T19:39:48.561Z,1.10
2022-12-18T19:42:21.419Z,1.10
2022-12-18T19:44:54.772Z,1.37
2022-12-18T19:47:23.081Z,1.47
2022-12-18T19:49:51.391Z,1.50
2022-12-18T19:52:19.867Z,1.57
2022-12-18T19:54:48.331Z,1.23
2022-12-18T19:57:16.580Z,1.17
2022-12-18T19:59:44.967Z,1.23
2022-12-18T20:02:18.929Z,1.30
2022-12-18T20:04:47.655Z,1.50
2022-12-18T20:07:15.907Z,1.77
2022-12-18T20:09:44.482Z,6.90
2022-12-18T20:12:12.953Z,17.90
2022-12-18T20:14:41.219Z,33.87
2022-12-18T20:17:09.496Z,28.37
2022-12-18T20:19:39.422Z,25.50
2022-12-18T20:22:07.853Z,21.23
2022-12-18T20:24:36.123Z,19.60
2022-12-18T20:27:05.634Z,16.87
2022-12-18T20:29:36.019Z,16.57
2022-12-18T20:32:04.321Z,14.80
2022-12-18T20:34:32.836Z,14.87
2022-12-18T20:37:02.670Z,12.87
2022-12-18T20:39:30.980Z,12.67
2022-12-18T20:41:59.724Z,11.33
2022-12-18T20:44:27.970Z,11.10
2022-12-18T20:46:56.687Z,9.53
2022-12-18T20:49:25.559Z,9.60
2022-12-18T20:51:53.883Z,8.43
2022-12-18T20:54:23.686Z,8.73
2022-12-18T20:56:52.038Z,7.43
2022-12-18T20:59:20.337Z,8.40
2022-12-18T21:01:49.612Z,8.40
2022-12-18T21:04:18.604Z,6.37
2022-12-18T21:06:51.458Z,5.00
2022-12-18T21:09:21.705Z,4.13
2022-12-18T21:12:08.918Z,6.03
2022-12-18T21:14:40.958Z,5.13
2022-12-18T21:17:09.248Z,5.00
2022-12-18T21:19:37.685Z,5.23
2022-12-18T21:22:06.729Z,4.50
2022-12-18T21:24:35.182Z,4.57
2022-12-18T21:27:04.819Z,4.37
2022-12-18T21:29:33.510Z,4.90
2022-12-18T21:32:01.799Z,3.43
2022-12-18T21:34:30.492Z,3.70
2022-12-18T21:36:59.219Z,3.60
2022-12-18T21:39:27.623Z,4.00
2022-12-18T21:42:13.668Z,3.40
2022-12-18T21:44:43.268Z,3.30
2022-12-18T21:47:21.893Z,2.97
2022-12-18T21:49:51.834Z,3.57
2022-12-18T21:52:20.128Z,3.77
2022-12-18T21:54:52.452Z,3.60
2022-12-18T21:57:20.731Z,2.40
2022-12-18T21:59:50.622Z,3.10
2022-12-18T22:02:20.429Z,2.53
2022-12-18T22:04:48.927Z,2.53
2022-12-18T22:07:17.292Z,2.13
2022-12-18T22:09:45.811Z,2.53
2022-12-18T22:12:34.500Z,2.07
2022-12-18T22:15:04.492Z,2.47
2022-12-18T22:17:32.809Z,2.40
2022-12-18T22:20:01.042Z,2.43
2022-12-18T22:22:29.481Z,1.93
2022-12-18T22:24:57.758Z,2.20
2022-12-18T22:27:25.999Z,2.17
2022-12-18T22:30:05.713Z,2.70
2022-12-18T22:32:35.614Z,2.40
2022-12-18T22:35:09.188Z,2.23
2022-12-18T22:37:39.143Z,1.80
2022-12-18T22:40:08.625Z,2.20
2022-12-18T22:42:37.067Z,2.43
2022-12-18T22:45:05.680Z,1.60
2022-12-18T22:47:35.312Z,2.07
2022-12-18T22:50:03.587Z,2.07
2022-12-18T22:52:31.984Z,2.33
2022-12-18T22:55:00.252Z,1.97
2022-12-18T22:57:29.539Z,1.70
2022-12-18T22:59:58.135Z,1.97
2022-12-18T23:02:26.526Z,2.00
2022-12-18T23:04:56.306Z,1.67
2022-12-18T23:07:24.589Z,1.90
2022-12-18T23:10:00.657Z,1.87
2022-12-18T23:12:29.685Z,1.23
2022-12-18T23:14:57.934Z,1.93
2022-12-18T23:17:26.162Z,1.93
2022-12-18T23:19:55.941Z,1.43
2022-12-18T23:22:24.223Z,1.70
2022-12-18T23:24:52.495Z,1.90
2022-12-18T23:27:20.814Z,1.60
2022-12-18T23:29:49.050Z,1.87
2022-12-18T23:32:19.303Z,1.80
2022-12-18T23:34:47.598Z,1.87
2022-12-18T23:37:30.024Z,1.60
2022-12-18T23:40:05.756Z,1.77
2022-12-18T23:42:33.994Z,1.33
2022-12-18T23:45:04.159Z,1.77
2022-12-18T23:47:40.068Z,1.30
2022-12-18T23:50:09.048Z,1.37
2022-12-18T23:52:39.173Z,1.83
2022-12-18T23:55:08.317Z,1.60
2022-12-18T23:57:36.574Z,2.00
